Time;durP1;ratioP1;P1;durP2;ratioP2;P2;SDS_P1;SDS_P2;PMS_P1;PMS_P2;Temp;Humidity;BMP_temperature;BMP_pressure;BME280_temperature;BME280_humidity;BME280_pressure;Samples;Min_cycle;Max_cycle;Signal;HPM_P1;HPM_P2
2023/05/29 00:01:28;;;;;;;8.00;3.78;;;19.30;44.20;;;;;;5015202;28;20116;-45
2023/05/29 00:03:55;;;;;;;8.50;3.78;;;19.30;44.90;;;;;;5019747;28;20416;-43
2023/05/29 00:06:22;;;;;;;16.88;4.30;;;19.20;44.50;;;;;;5018607;28;20053;-43
2023/05/29 00:08:50;;;;;;;8.82;3.90;;;19.20;44.60;;;;;;5019056;28;20067;-43
2023/05/29 00:11:17;;;;;;;10.52;4.15;;;19.10;44.80;;;;;;5017998;28;20056;-43
2023/05/29 00:13:46;;;;;;;10.73;4.10;;;19.00;45.00;;;;;;5018232;28;20057;-44
2023/05/29 00:16:13;;;;;;;9.57;4.18;;;19.00;45.20;;;;;;5017433;28;20417;-44
2023/05/29 00:18:45;;;;;;;9.90;4.32;;;18.90;45.30;;;;;;5016965;28;20076;-44
2023/05/29 00:21:13;;;;;;;12.85;4.38;;;18.90;45.60;;;;;;5017186;28;20050;-42
2023/05/29 00:23:40;;;;;;;10.13;4.15;;;18.80;45.80;;;;;;5016242;28;20062;-43
2023/05/29 00:26:08;;;;;;;9.02;4.50;;;18.80;45.90;;;;;;5017826;28;20864;-45
2023/05/29 00:28:37;;;;;;;7.38;3.45;;;18.70;46.00;;;;;;5017813;28;20049;-43
2023/05/29 00:31:05;;;;;;;9.80;4.03;;;18.70;46.10;;;;;;5017040;28;20045;-44
2023/05/29 00:33:32;;;;;;;8.13;4.20;;;18.70;46.20;;;;;;5017517;28;20497;-44
2023/05/29 00:36:00;;;;;;;12.02;4.82;;;18.60;46.20;;;;;;5013137;28;20085;-43
2023/05/29 00:38:27;;;;;;;11.27;4.28;;;18.60;46.40;;;;;;5017732;28;20049;-43
2023/05/29 00:40:54;;;;;;;11.15;4.65;;;18.60;46.60;;;;;;5017121;28;20060;-43
2023/05/29 00:43:21;;;;;;;9.77;4.30;;;18.50;46.70;;;;;;5017311;28;20046;-43
2023/05/29 00:45:49;;;;;;;10.55;4.35;;;18.50;46.60;;;;;;5016244;28;20054;-43
2023/05/29 00:48:18;;;;;;;9.35;4.80;;;18.40;46.60;;;;;;5014468;28;20050;-42
2023/05/29 00:50:46;;;;;;;10.77;4.47;;;18.40;46.90;;;;;;5018728;28;20045;-44
2023/05/29 00:53:15;;;;;;;8.07;4.13;;;18.40;47.00;;;;;;5016412;28;20057;-43
2023/05/29 00:55:42;;;;;;;10.10;4.72;;;18.30;47.10;;;;;;5015626;28;20076;-43
2023/05/29 00:58:10;;;;;;;11.70;4.45;;;18.30;47.10;;;;;;5018196;28;20512;-43
2023/05/29 01:00:38;;;;;;;7.80;3.95;;;18.30;47.20;;;;;;5018247;28;20053;-46
2023/05/29 01:03:07;;;;;;;8.48;4.10;;;18.20;47.20;;;;;;4982630;23;1100286;-89
2023/05/29 01:05:36;;;;;;;12.77;4.88;;;18.20;47.20;;;;;;4978747;28;20058;-89
2023/05/29 01:08:04;;;;;;;8.48;4.10;;;18.10;47.40;;;;;;4977907;28;20058;-91
2023/05/29 01:10:31;;;;;;;14.93;4.78;;;18.10;47.50;;;;;;4981777;28;20062;-90
2023/05/29 01:13:04;;;;;;;12.05;4.80;;;18.10;47.60;;;;;;4983536;28;20050;-88
2023/05/29 01:15:39;;;;;;;10.75;4.53;;;18.10;47.70;;;;;;4989165;28;20074;-90
2023/05/29 01:18:18;;;;;;;9.10;4.20;;;18.00;47.90;;;;;;4988648;28;20060;-88
2023/05/29 01:20:53;;;;;;;13.40;4.80;;;17.90;47.90;;;;;;4989552;28;20046;-90
2023/05/29 01:24:01;;;;;;;9.40;4.47;;;17.90;48.10;;;;;;4983142;28;20061;-90
2023/05/29 01:26:48;;;;;;;9.70;4.82;;;17.90;48.30;;;;;;4965103;28;20057;-90
2023/05/29 01:29:19;;;;;;;13.23;4.80;;;17.80;48.40;;;;;;4982223;28;20046;-91
2023/05/29 01:31:48;;;;;;;16.02;4.90;;;17.70;48.50;;;;;;4983273;28;21008;-92
2023/05/29 01:34:15;;;;;;;14.80;4.97;;;17.70;48.70;;;;;;4983804;28;20065;-87
2023/05/29 01:36:42;;;;;;;12.38;4.28;;;17.60;48.90;;;;;;4979342;28;20065;-87
2023/05/29 01:39:10;;;;;;;13.15;4.75;;;17.60;49.10;;;;;;4987273;28;20418;-88
2023/05/29 01:41:38;;;;;;;10.10;4.70;;;17.50;49.80;;;;;;4984285;28;20058;-90
2023/05/29 01:44:09;;;;;;;11.30;5.07;;;17.50;49.50;;;;;;4981221;28;20054;-91
2023/05/29 01:46:38;;;;;;;12.98;5.03;;;17.40;49.70;;;;;;4979970;28;20061;-91
2023/05/29 01:49:06;;;;;;;9.73;4.57;;;17.40;49.80;;;;;;4980891;28;20061;-89
2023/05/29 01:51:33;;;;;;;11.38;4.78;;;17.30;49.90;;;;;;4978752;28;20050;-87
2023/05/29 01:54:01;;;;;;;11.52;4.82;;;17.30;50.10;;;;;;4982940;28;20058;-89
2023/05/29 01:56:29;;;;;;;9.23;4.63;;;17.20;50.20;;;;;;4977868;28;20061;-92
2023/05/29 01:58:57;;;;;;;15.05;5.43;;;17.20;50.50;;;;;;4981427;28;20050;-92
2023/05/29 02:01:26;;;;;;;10.45;4.82;;;17.20;50.50;;;;;;4988956;28;20079;-87
2023/05/29 02:03:54;;;;;;;10.48;4.90;;;17.20;50.70;;;;;;4971431;28;20156;-90
2023/05/29 02:06:21;;;;;;;10.02;4.68;;;17.20;50.70;;;;;;4979455;28;20058;-87
2023/05/29 02:08:48;;;;;;;11.05;4.90;;;17.10;50.80;;;;;;4983137;28;20058;-91
2023/05/29 02:11:16;;;;;;;11.52;4.78;;;17.10;50.90;;;;;;4981153;28;20058;-89
2023/05/29 02:13:43;;;;;;;12.40;4.90;;;17.00;50.90;;;;;;4979621;28;20053;-90
2023/05/29 02:16:10;;;;;;;10.98;5.10;;;17.00;51.10;;;;;;4980873;28;20066;-91
2023/05/29 02:18:41;;;;;;;11.88;4.70;;;17.00;51.20;;;;;;4978139;28;20506;-90
2023/05/29 02:21:08;;;;;;;12.63;5.15;;;16.90;51.30;;;;;;4978373;28;20058;-90
2023/05/29 02:23:35;;;;;;;12.48;5.60;;;16.90;51.50;;;;;;4982216;28;20050;-91
2023/05/29 02:26:03;;;;;;;9.18;4.72;;;16.90;51.70;;;;;;4986273;28;20061;-91
2023/05/29 02:28:30;;;;;;;13.45;4.95;;;16.80;51.70;;;;;;4980608;28;20047;-89
2023/05/29 02:30:57;;;;;;;11.65;4.68;;;16.80;51.60;;;;;;4980348;28;20054;-89
2023/05/29 02:33:24;;;;;;;12.43;4.88;;;16.70;51.80;;;;;;4981000;28;20046;-86
2023/05/29 02:35:53;;;;;;;10.73;4.90;;;16.60;52.00;;;;;;4983700;28;20051;-87
2023/05/29 02:38:20;;;;;;;13.68;5.03;;;16.60;52.30;;;;;;4982026;28;20059;-90
2023/05/29 02:40:48;;;;;;;10.38;4.80;;;16.50;52.50;;;;;;4980259;28;20054;-90
2023/05/29 02:43:15;;;;;;;11.77;5.20;;;16.50;52.60;;;;;;4981617;28;20057;-90
2023/05/29 02:45:42;;;;;;;12.80;5.35;;;16.40;52.70;;;;;;4980406;28;20066;-89
2023/05/29 02:48:10;;;;;;;17.40;5.15;;;16.40;52.90;;;;;;4981906;28;20544;-91
2023/05/29 02:50:37;;;;;;;12.90;4.82;;;16.30;53.10;;;;;;4982258;28;20418;-90
2023/05/29 02:53:06;;;;;;;15.57;5.20;;;16.30;53.20;;;;;;4985945;28;20394;-88
2023/05/29 02:55:35;;;;;;;11.13;5.30;;;16.30;53.90;;;;;;4987844;28;20081;-89
2023/05/29 02:58:02;;;;;;;11.77;5.32;;;16.20;53.50;;;;;;4978982;28;20061;-90
2023/05/29 03:00:30;;;;;;;15.13;5.55;;;16.20;53.70;;;;;;4987497;28;20512;-87
2023/05/29 03:02:58;;;;;;;12.52;5.50;;;16.10;53.80;;;;;;4953574;28;20051;-91
2023/05/29 03:05:25;;;;;;;10.10;4.38;;;16.10;53.80;;;;;;4961120;28;20055;-91
2023/05/29 03:07:52;;;;;;;7.18;4.78;;;16.00;54.00;;;;;;4960896;28;20425;-93
2023/05/29 03:10:22;;;;;;;10.18;4.93;;;16.00;54.00;;;;;;4962539;28;20129;-90
2023/05/29 03:12:49;;;;;;;11.50;5.15;;;16.00;54.10;;;;;;4961101;28;20046;-87
2023/05/29 03:15:16;;;;;;;10.55;4.68;;;16.00;54.10;;;;;;4962562;28;20054;-89
2023/05/29 03:17:43;;;;;;;10.75;4.75;;;15.90;54.30;;;;;;4961382;28;20067;-90
2023/05/29 03:20:12;;;;;;;8.43;4.85;;;15.90;54.50;;;;;;4961255;28;20050;-90
2023/05/29 03:22:40;;;;;;;14.13;4.80;;;15.90;54.50;;;;;;4960803;28;20058;-89
2023/05/29 03:25:07;;;;;;;12.98;5.38;;;15.80;54.50;;;;;;4960697;28;20051;-90
2023/05/29 03:27:36;;;;;;;16.13;5.90;;;15.80;54.70;;;;;;4959674;28;20055;-87
2023/05/29 03:30:04;;;;;;;14.38;4.88;;;15.70;54.70;;;;;;4965709;28;20062;-91
2023/05/29 03:32:31;;;;;;;9.70;5.50;;;15.70;55.00;;;;;;4958549;28;20054;-89
2023/05/29 03:34:58;;;;;;;9.73;4.60;;;15.60;55.00;;;;;;4960567;28;20050;-89
2023/05/29 03:37:26;;;;;;;15.23;5.55;;;15.50;55.10;;;;;;4958542;28;20059;-89
2023/05/29 03:39:53;;;;;;;13.90;5.47;;;15.50;55.30;;;;;;4967396;28;20077;-90
2023/05/29 03:42:21;;;;;;;9.63;5.60;;;15.50;55.50;;;;;;4960802;28;20494;-89
2023/05/29 03:44:50;;;;;;;12.27;5.10;;;15.50;55.60;;;;;;4961703;28;20046;-90
2023/05/29 03:47:17;;;;;;;11.75;4.80;;;15.50;55.60;;;;;;4960094;28;20058;-91
2023/05/29 03:49:44;;;;;;;7.85;4.75;;;15.40;55.60;;;;;;4953269;28;20063;-87
2023/05/29 03:52:12;;;;;;;9.07;5.00;;;15.40;55.70;;;;;;4955776;28;20047;-88
2023/05/29 03:54:39;;;;;;;10.80;5.18;;;15.40;55.80;;;;;;4958319;28;20498;-89
2023/05/29 03:57:06;;;;;;;10.18;5.57;;;15.40;55.90;;;;;;4966355;28;20054;-90
2023/05/29 03:59:34;;;;;;;10.00;4.75;;;15.40;56.00;;;;;;4959949;28;20059;-91
2023/05/29 04:02:03;;;;;;;9.40;4.82;;;15.40;56.10;;;;;;4960633;28;20529;-93
2023/05/29 04:04:30;;;;;;;13.02;5.13;;;15.30;56.10;;;;;;4960275;28;20063;-86
2023/05/29 04:06:57;;;;;;;10.50;5.28;;;15.40;56.10;;;;;;4958631;28;20070;-87
2023/05/29 04:09:25;;;;;;;11.27;5.57;;;15.40;56.20;;;;;;4958841;28;20501;-89
2023/05/29 04:11:54;;;;;;;15.05;5.78;;;15.30;56.20;;;;;;4959456;28;20061;-89
2023/05/29 04:14:21;;;;;;;17.15;5.65;;;15.30;56.20;;;;;;4960073;28;20054;-86
2023/05/29 04:16:49;;;;;;;9.65;5.40;;;15.30;56.20;;;;;;4962404;28;20047;-89
2023/05/29 04:19:17;;;;;;;9.60;4.90;;;15.40;56.20;;;;;;4955648;28;20070;-86
2023/05/29 04:21:47;;;;;;;8.82;4.82;;;15.30;56.20;;;;;;4959356;28;20143;-88
2023/05/29 04:24:14;;;;;;;12.27;5.22;;;15.40;56.20;;;;;;4961383;28;20058;-91
2023/05/29 04:26:42;;;;;;;15.18;5.07;;;15.30;56.10;;;;;;4956247;28;20062;-90
2023/05/29 04:29:12;;;;;;;9.38;5.07;;;15.30;56.10;;;;;;4958772;28;20054;-92
2023/05/29 04:31:40;;;;;;;10.90;5.22;;;15.30;56.20;;;;;;4957384;28;20063;-86
2023/05/29 04:34:07;;;;;;;13.50;5.25;;;15.30;56.20;;;;;;4938468;28;20050;-89
2023/05/29 04:36:38;;;;;;;14.02;6.20;;;15.30;56.20;;;;;;4953283;28;20490;-90
2023/05/29 04:39:06;;;;;;;11.73;4.97;;;15.40;56.30;;;;;;4957914;28;20492;-88
2023/05/29 04:41:35;;;;;;;9.77;5.35;;;15.40;56.20;;;;;;4966517;28;20061;-91
2023/05/29 04:44:03;;;;;;;11.13;5.35;;;15.40;56.20;;;;;;4961422;28;20061;-90
2023/05/29 04:46:31;;;;;;;10.57;5.30;;;15.40;56.20;;;;;;4963482;28;20117;-90
2023/05/29 04:48:58;;;;;;;10.68;5.85;;;15.40;56.20;;;;;;4963126;28;20050;-88
2023/05/29 04:51:28;;;;;;;13.15;5.97;;;15.40;56.20;;;;;;4962774;28;20062;-89
2023/05/29 04:53:57;;;;;;;14.32;5.88;;;15.40;56.70;;;;;;4965592;28;20049;-89
2023/05/29 04:56:26;;;;;;;12.82;5.35;;;15.40;56.20;;;;;;4963036;28;20062;-89
2023/05/29 04:58:53;;;;;;;11.40;5.70;;;15.40;56.20;;;;;;4962846;28;20054;-89
2023/05/29 05:01:21;;;;;;;8.93;4.70;;;15.40;56.10;;;;;;4963169;28;20426;-88
2023/05/29 05:03:48;;;;;;;10.73;5.65;;;15.40;56.00;;;;;;4963547;28;20062;-87
2023/05/29 05:06:16;;;;;;;10.05;5.80;;;15.40;56.20;;;;;;4971026;28;20061;-88
2023/05/29 05:08:44;;;;;;;8.48;5.20;;;15.40;56.50;;;;;;4962132;28;20537;-89
2023/05/29 05:11:13;;;;;;;11.10;5.90;;;15.50;56.70;;;;;;4960465;28;20062;-90
2023/05/29 05:13:41;;;;;;;15.57;5.60;;;15.50;56.50;;;;;;4961005;28;20514;-89
2023/05/29 05:16:08;;;;;;;18.63;5.90;;;15.50;56.40;;;;;;4960911;28;20069;-90
2023/05/29 05:18:36;;;;;;;9.68;5.53;;;15.50;56.30;;;;;;4960258;28;20487;-89
2023/05/29 05:21:05;;;;;;;11.63;5.65;;;15.50;56.30;;;;;;4961506;28;20066;-90
2023/05/29 05:23:33;;;;;;;11.95;5.75;;;15.50;56.20;;;;;;4958452;28;20058;-88
2023/05/29 05:26:00;;;;;;;12.38;6.30;;;15.50;56.20;;;;;;4961735;28;20054;-91
2023/05/29 05:28:29;;;;;;;11.40;5.60;;;15.50;56.20;;;;;;4962535;28;20050;-90
2023/05/29 05:30:56;;;;;;;11.88;5.68;;;15.50;56.10;;;;;;4965866;28;20065;-88
2023/05/29 05:33:23;;;;;;;12.85;6.22;;;15.50;56.60;;;;;;4961988;28;20057;-87
2023/05/29 05:35:51;;;;;;;9.38;5.63;;;15.50;56.20;;;;;;4961483;28;20052;-88
2023/05/29 05:38:18;;;;;;;13.00;6.10;;;15.50;56.10;;;;;;4959503;28;20054;-91
2023/05/29 05:40:46;;;;;;;15.00;6.32;;;15.50;56.20;;;;;;4959248;28;20061;-92
2023/05/29 05:43:13;;;;;;;14.07;5.90;;;15.50;56.30;;;;;;4961546;28;20165;-87
2023/05/29 05:45:42;;;;;;;10.68;5.88;;;15.50;56.30;;;;;;4966660;28;20491;-90
2023/05/29 05:48:10;;;;;;;10.60;5.82;;;15.60;56.40;;;;;;4962756;28;20062;-90
2023/05/29 05:50:37;;;;;;;16.77;6.38;;;15.60;56.20;;;;;;4961371;28;20057;-89
2023/05/29 05:53:04;;;;;;;13.90;5.80;;;15.60;56.20;;;;;;4958762;28;20055;-90
2023/05/29 05:55:32;;;;;;;13.93;6.72;;;15.70;56.20;;;;;;4960733;28;20051;-88
2023/05/29 05:57:59;;;;;;;18.20;6.68;;;15.70;56.10;;;;;;4961073;28;20062;-89
2023/05/29 06:00:27;;;;;;;20.67;6.90;;;15.80;56.00;;;;;;4962928;28;20154;-87
2023/05/29 06:02:57;;;;;;;13.23;6.35;;;15.80;55.90;;;;;;4951699;28;20058;-91
2023/05/29 06:05:24;;;;;;;12.65;6.00;;;15.80;56.00;;;;;;4960936;28;20487;-88
2023/05/29 06:07:52;;;;;;;16.13;6.72;;;15.90;56.00;;;;;;4960714;28;20051;-91
2023/05/29 06:10:19;;;;;;;17.90;7.05;;;15.90;56.00;;;;;;4962707;28;20051;-90
2023/05/29 06:12:47;;;;;;;16.02;6.85;;;15.90;55.90;;;;;;4962511;28;20495;-88
2023/05/29 06:15:14;;;;;;;11.88;5.57;;;15.90;55.60;;;;;;4969323;28;20615;-87
2023/05/29 06:17:41;;;;;;;17.52;7.10;;;16.00;55.70;;;;;;4960199;28;20094;-88
2023/05/29 06:20:11;;;;;;;16.13;6.47;;;16.00;55.90;;;;;;4958183;28;21011;-90
2023/05/29 06:22:38;;;;;;;12.32;6.65;;;16.00;55.80;;;;;;4955439;28;20065;-89
2023/05/29 06:25:06;;;;;;;12.98;6.53;;;16.00;55.60;;;;;;4958636;28;20400;-87
2023/05/29 06:27:34;;;;;;;14.52;5.72;;;16.10;55.60;;;;;;4960741;28;20070;-90
2023/05/29 06:30:01;;;;;;;13.88;6.32;;;16.10;55.70;;;;;;4958474;28;20423;-90
2023/05/29 06:32:28;;;;;;;11.90;6.15;;;16.20;55.90;;;;;;4960366;28;20085;-92
2023/05/29 06:34:56;;;;;;;13.70;6.95;;;16.20;55.80;;;;;;4958848;28;20055;-90
2023/05/29 06:37:25;;;;;;;20.05;7.63;;;16.20;55.60;;;;;;4959414;28;20055;-87
2023/05/29 06:39:53;;;;;;;13.05;7.03;;;16.30;55.30;;;;;;4960886;28;20061;-89
2023/05/29 06:42:20;;;;;;;12.70;6.70;;;16.30;55.30;;;;;;4960927;28;20498;-93
2023/05/29 06:44:47;;;;;;;14.02;6.22;;;16.30;55.40;;;;;;4960609;28;20073;-89
2023/05/29 06:47:15;;;;;;;16.10;7.00;;;16.30;55.60;;;;;;4964332;28;20316;-89
2023/05/29 06:49:43;;;;;;;11.60;6.05;;;16.30;55.40;;;;;;4963374;28;20061;-91
2023/05/29 06:52:10;;;;;;;15.00;6.85;;;16.30;55.30;;;;;;4962124;28;20066;-86
2023/05/29 06:54:40;;;;;;;15.05;7.07;;;16.40;55.50;;;;;;4966816;28;20142;-91
2023/05/29 06:57:07;;;;;;;12.75;6.32;;;16.40;55.40;;;;;;4965647;28;20521;-94
2023/05/29 06:59:34;;;;;;;16.17;6.65;;;16.50;55.80;;;;;;4959404;28;20059;-92
2023/05/29 07:02:02;;;;;;;16.20;7.43;;;16.50;55.80;;;;;;4962800;28;20486;-90
2023/05/29 07:04:30;;;;;;;12.48;6.05;;;16.60;55.30;;;;;;4961804;28;20530;-93
2023/05/29 07:06:57;;;;;;;16.13;6.80;;;16.60;55.20;;;;;;4961667;28;20073;-90
2023/05/29 07:09:25;;;;;;;12.95;6.28;;;16.70;55.20;;;;;;4961557;28;20073;-89
2023/05/29 07:11:54;;;;;;;12.88;6.72;;;16.70;55.10;;;;;;4958354;28;20058;-92
2023/05/29 07:14:21;;;;;;;15.82;6.82;;;16.80;55.00;;;;;;4956994;28;20422;-90
2023/05/29 07:16:49;;;;;;;17.33;7.25;;;16.80;54.70;;;;;;4963333;28;20051;-91
2023/05/29 07:19:17;;;;;;;16.83;6.72;;;16.80;54.30;;;;;;4960350;28;20055;-92
2023/05/29 07:21:44;;;;;;;11.90;5.65;;;16.80;54.60;;;;;;4959994;28;20054;-91
2023/05/29 07:24:12;;;;;;;13.13;6.13;;;16.90;54.70;;;;;;4966821;28;20066;-90
2023/05/29 07:26:39;;;;;;;12.82;6.03;;;16.90;54.60;;;;;;4961466;28;20172;-89
2023/05/29 07:29:08;;;;;;;12.32;6.38;;;16.90;54.50;;;;;;4961417;28;20054;-89
2023/05/29 07:31:35;;;;;;;12.75;6.28;;;17.00;54.60;;;;;;4955529;28;20062;-88
2023/05/29 07:34:03;;;;;;;16.90;7.45;;;17.00;54.70;;;;;;4966781;28;20062;-92
2023/05/29 07:36:32;;;;;;;16.48;6.40;;;17.00;54.80;;;;;;4958692;28;20085;-95
2023/05/29 07:38:59;;;;;;;18.83;6.13;;;17.10;54.80;;;;;;4960368;28;20051;-93
2023/05/29 07:41:27;;;;;;;13.02;5.45;;;17.10;55.20;;;;;;4964535;28;20062;-92
2023/05/29 07:43:55;;;;;;;11.77;6.22;;;17.20;54.70;;;;;;4959297;28;20070;-89
2023/05/29 07:46:24;;;;;;;13.65;6.32;;;17.20;54.70;;;;;;4960607;28;20057;-89
2023/05/29 07:48:52;;;;;;;18.85;6.93;;;17.30;54.30;;;;;;4961658;28;20073;-93
2023/05/29 07:51:19;;;;;;;16.45;6.75;;;17.30;53.90;;;;;;4958880;28;20376;-93
2023/05/29 07:53:47;;;;;;;12.50;5.95;;;17.40;54.10;;;;;;4966362;28;20391;-91
2023/05/29 07:56:14;;;;;;;14.38;6.53;;;17.50;54.10;;;;;;4961270;28;20055;-88
2023/05/29 07:58:42;;;;;;;17.77;6.63;;;17.50;54.10;;;;;;4957474;28;20050;-89
2023/05/29 08:01:09;;;;;;;13.90;6.43;;;17.50;53.70;;;;;;4962603;28;20423;-93
2023/05/29 08:03:38;;;;;;;16.38;6.22;;;17.60;53.70;;;;;;4961769;28;20055;-92
2023/05/29 08:06:06;;;;;;;18.98;7.03;;;17.60;53.90;;;;;;4958069;28;20054;-88
2023/05/29 08:08:33;;;;;;;12.38;6.00;;;17.70;53.70;;;;;;4960657;28;20448;-89
2023/05/29 08:11:00;;;;;;;18.88;7.32;;;17.70;53.30;;;;;;4959779;28;20054;-89
2023/05/29 08:13:28;;;;;;;15.82;6.65;;;17.70;53.40;;;;;;4962550;28;20147;-91
2023/05/29 08:15:55;;;;;;;11.90;6.40;;;17.80;53.50;;;;;;4962879;28;20047;-90
2023/05/29 08:18:27;;;;;;;16.85;6.47;;;17.80;53.90;;;;;;4959667;28;20062;-90
2023/05/29 08:20:56;;;;;;;18.73;6.70;;;17.90;53.60;;;;;;4961053;28;20058;-88
2023/05/29 08:23:23;;;;;;;17.40;6.55;;;17.90;53.20;;;;;;4957309;28;20062;-87
2023/05/29 08:25:50;;;;;;;16.45;6.53;;;17.90;53.20;;;;;;4960364;28;20051;-87
2023/05/29 08:28:18;;;;;;;16.50;6.47;;;18.00;52.80;;;;;;4954828;28;20051;-86
2023/05/29 08:30:45;;;;;;;17.52;6.10;;;18.00;52.60;;;;;;4959356;28;20069;-91
2023/05/29 08:33:12;;;;;;;17.85;7.53;;;18.00;53.10;;;;;;4957870;28;20059;-91
2023/05/29 08:35:40;;;;;;;20.58;7.15;;;18.10;52.90;;;;;;4958735;28;20055;-90
2023/05/29 08:38:09;;;;;;;18.20;7.13;;;18.10;53.20;;;;;;4963903;28;20387;-90
2023/05/29 08:40:36;;;;;;;16.17;6.63;;;18.20;52.60;;;;;;4957737;28;20058;-92
2023/05/29 08:43:09;;;;;;;13.13;5.55;;;18.20;52.60;;;;;;4957177;28;20054;-87
2023/05/29 08:45:41;;;;;;;18.73;7.05;;;18.30;52.60;;;;;;4959388;28;20077;-90
2023/05/29 08:48:10;;;;;;;9.65;5.47;;;18.30;52.50;;;;;;4954381;28;20065;-87
2023/05/29 08:50:43;;;;;;;16.42;6.43;;;18.40;52.90;;;;;;4958190;28;20051;-88
2023/05/29 08:53:13;;;;;;;11.35;5.57;;;18.40;52.90;;;;;;4957610;28;20058;-88
2023/05/29 08:55:41;;;;;;;16.55;6.22;;;18.50;52.80;;;;;;4964077;28;20506;-88
2023/05/29 08:58:09;;;;;;;15.45;6.05;;;18.60;52.70;;;;;;4958633;28;20058;-90
2023/05/29 09:00:37;;;;;;;18.30;6.25;;;18.70;52.80;;;;;;4956973;28;20716;-88
2023/05/29 09:03:04;;;;;;;12.95;5.60;;;18.70;52.20;;;;;;4956247;28;20062;-88
2023/05/29 09:05:32;;;;;;;11.57;5.57;;;18.80;52.20;;;;;;4957164;28;20059;-90
2023/05/29 09:08:00;;;;;;;16.30;5.72;;;18.90;52.70;;;;;;4958124;28;20055;-89
2023/05/29 09:10:29;;;;;;;14.48;5.80;;;18.90;52.30;;;;;;4958364;28;20415;-88
2023/05/29 09:12:56;;;;;;;12.25;5.63;;;19.00;52.30;;;;;;4957191;28;20070;-87
2023/05/29 09:15:24;;;;;;;20.60;6.15;;;19.10;52.40;;;;;;4958278;28;20081;-88
2023/05/29 09:17:52;;;;;;;15.35;6.30;;;19.20;52.20;;;;;;4956974;28;20055;-90
2023/05/29 09:20:23;;;;;;;19.17;7.30;;;19.30;51.70;;;;;;4957244;28;20427;-89
2023/05/29 09:22:57;;;;;;;18.15;6.65;;;19.40;51.60;;;;;;4957574;28;20554;-91
2023/05/29 09:25:26;;;;;;;16.08;5.63;;;19.40;51.40;;;;;;4962698;28;20058;-89
2023/05/29 09:27:57;;;;;;;13.48;5.57;;;19.40;51.50;;;;;;4957818;28;20051;-91
2023/05/29 09:30:38;;;;;;;15.00;5.63;;;19.50;51.30;;;;;;4963569;28;20069;-90
2023/05/29 09:33:06;;;;;;;14.45;5.75;;;19.50;51.00;;;;;;4958945;28;20054;-89
2023/05/29 09:35:35;;;;;;;13.65;5.82;;;19.60;51.30;;;;;;4959829;28;20161;-89
2023/05/29 09:38:03;;;;;;;16.17;5.47;;;19.70;50.80;;;;;;4960915;28;20058;-91
2023/05/29 09:40:34;;;;;;;18.10;6.38;;;19.80;50.80;;;;;;4963017;28;20158;-89
2023/05/29 09:43:11;;;;;;;13.80;5.68;;;19.80;50.80;;;;;;4962885;28;20054;-88
2023/05/29 09:45:40;;;;;;;13.10;5.95;;;19.90;50.20;;;;;;4965949;28;20055;-87
2023/05/29 09:48:08;;;;;;;14.07;5.50;;;20.00;49.90;;;;;;4961498;28;20054;-87
2023/05/29 09:50:36;;;;;;;12.15;5.68;;;20.00;49.50;;;;;;4958787;28;20058;-88
2023/05/29 09:53:03;;;;;;;14.07;5.05;;;20.10;50.00;;;;;;4959503;28;20058;-89
2023/05/29 09:55:33;;;;;;;16.05;5.78;;;20.10;50.10;;;;;;4960087;28;20054;-89
2023/05/29 09:58:02;;;;;;;13.20;6.22;;;20.20;49.20;;;;;;4959518;28;20047;-88
2023/05/29 10:00:32;;;;;;;14.55;5.80;;;20.30;49.10;;;;;;4957157;28;20050;-87
2023/05/29 10:02:59;;;;;;;12.98;5.15;;;20.30;49.30;;;;;;4960749;28;20059;-88
2023/05/29 10:05:27;;;;;;;14.85;5.20;;;20.30;49.00;;;;;;4958932;28;20065;-87
2023/05/29 10:07:55;;;;;;;14.18;4.97;;;20.30;49.10;;;;;;4957509;28;20058;-87
2023/05/29 10:10:27;;;;;;;14.38;5.38;;;20.30;48.80;;;;;;4960393;28;20427;-88
2023/05/29 10:12:55;;;;;;;16.50;5.93;;;20.40;48.80;;;;;;4960087;28;20503;-87
2023/05/29 10:15:29;;;;;;;11.60;5.15;;;20.50;49.20;;;;;;4959578;28;20063;-88
2023/05/29 10:18:01;;;;;;;;;;;20.60;49.10;;;;;;4958751;28;20070;-88
2023/05/29 10:20:29;;;;;;;13.10;4.72;;;20.70;48.90;;;;;;4959134;28;19922;-87
2023/05/29 10:23:00;;;;;;;12.95;5.25;;;20.80;48.00;;;;;;4957773;28;20059;-88
2023/05/29 10:25:30;;;;;;;13.50;5.00;;;20.90;47.80;;;;;;4961100;28;20062;-87
2023/05/29 10:27:58;;;;;;;9.68;4.88;;;20.90;48.40;;;;;;4961114;28;20066;-88
2023/05/29 10:30:33;;;;;;;14.30;4.93;;;21.00;48.10;;;;;;4957232;28;20096;-88
2023/05/29 10:33:18;;;;;;;14.13;5.75;;;21.10;48.00;;;;;;4957728;28;20063;-88
2023/05/29 10:35:50;;;;;;;15.25;4.80;;;21.20;48.10;;;;;;4965985;28;20058;-88
2023/05/29 10:38:19;;;;;;;11.07;4.32;;;21.20;48.00;;;;;;4957078;28;20062;-89
2023/05/29 10:40:46;;;;;;;16.75;5.65;;;21.30;47.30;;;;;;4961480;28;20057;-88
2023/05/29 10:43:32;;;;;;;14.75;4.88;;;21.40;47.40;;;;;;4958037;28;20063;-88
2023/05/29 10:46:00;;;;;;;11.60;4.30;;;21.40;47.60;;;;;;4958795;28;20047;-90
2023/05/29 10:48:44;;;;;;;12.82;4.80;;;21.50;47.50;;;;;;4960167;28;20418;-89
2023/05/29 10:51:28;;;;;;;10.25;3.92;;;21.60;47.50;;;;;;4959532;28;20059;-89
2023/05/29 10:53:56;;;;;;;14.00;4.78;;;21.70;46.70;;;;;;4962574;28;20411;-91
2023/05/29 10:56:28;;;;;;;12.40;4.78;;;21.70;46.40;;;;;;4963244;28;20059;-88
2023/05/29 10:58:57;;;;;;;12.50;4.32;;;21.80;46.80;;;;;;4959597;28;20062;-88
2023/05/29 11:01:26;;;;;;;9.77;4.55;;;21.80;46.30;;;;;;4963153;28;20494;-87
2023/05/29 11:04:15;;;;;;;16.83;5.15;;;21.80;46.10;;;;;;4959391;28;20050;-89
2023/05/29 11:06:42;;;;;;;11.63;4.68;;;21.90;46.10;;;;;;4958780;28;20054;-91
2023/05/29 11:09:27;;;;;;;12.65;4.13;;;22.00;45.70;;;;;;4959903;28;20051;-88
2023/05/29 11:12:13;;;;;;;16.50;4.68;;;22.00;46.40;;;;;;4960226;28;20483;-88
2023/05/29 11:14:47;;;;;;;12.00;4.18;;;22.10;45.50;;;;;;4965144;28;20054;-88
2023/05/29 11:17:33;;;;;;;14.13;4.55;;;22.20;46.20;;;;;;4955155;28;20061;-88
2023/05/29 11:20:06;;;;;;;12.30;3.97;;;22.30;46.00;;;;;;4960826;28;20062;-88
2023/05/29 11:22:54;;;;;;;11.65;4.45;;;22.30;46.50;;;;;;4958339;28;20529;-87
2023/05/29 11:25:22;;;;;;;14.00;5.13;;;22.40;45.50;;;;;;4958348;28;20518;-88
2023/05/29 11:27:51;;;;;;;11.90;3.95;;;22.50;46.00;;;;;;4960769;28;20055;-89
2023/05/29 11:30:19;;;;;;;12.10;4.35;;;22.60;46.20;;;;;;4958270;28;20066;-88
2023/05/29 11:32:47;;;;;;;14.23;5.03;;;22.70;45.20;;;;;;4958891;28;20054;-88
2023/05/29 11:35:16;;;;;;;11.35;4.22;;;22.70;44.50;;;;;;4966075;28;20069;-90
2023/05/29 11:37:46;;;;;;;12.85;4.07;;;22.80;45.50;;;;;;4957635;28;20058;-89
2023/05/29 11:40:14;;;;;;;10.70;4.25;;;22.90;45.30;;;;;;4960353;28;20061;-89
2023/05/29 11:42:45;;;;;;;11.50;4.60;;;22.90;45.10;;;;;;4960916;28;20434;-90
2023/05/29 11:45:13;;;;;;;13.70;4.28;;;23.00;45.10;;;;;;4965651;28;20051;-89
2023/05/29 11:47:57;;;;;;;12.50;4.40;;;23.00;44.60;;;;;;4957272;28;20058;-87
2023/05/29 11:50:27;;;;;;;13.33;4.40;;;23.00;44.70;;;;;;4958353;28;20471;-89
2023/05/29 11:52:56;;;;;;;10.82;3.15;;;23.10;44.20;;;;;;4956062;28;20474;-88
2023/05/29 11:55:24;;;;;;;16.55;4.10;;;23.20;44.80;;;;;;4961223;28;20051;-88
2023/05/29 11:57:53;;;;;;;11.45;4.22;;;23.20;43.80;;;;;;4961374;28;20402;-88
2023/05/29 12:00:21;;;;;;;14.75;4.30;;;23.20;44.30;;;;;;4959201;28;20088;-88
2023/05/29 12:02:49;;;;;;;13.20;4.13;;;23.20;44.10;;;;;;4957984;28;20054;-87
2023/05/29 12:05:19;;;;;;;12.00;4.55;;;23.20;44.00;;;;;;4959914;28;21214;-88
2023/05/29 12:07:52;;;;;;;13.48;4.35;;;23.20;44.10;;;;;;4957785;28;20415;-88
2023/05/29 12:10:22;;;;;;;10.85;4.20;;;23.20;43.70;;;;;;4966606;28;20061;-87
2023/05/29 12:12:51;;;;;;;20.42;4.47;;;23.20;44.90;;;;;;4957931;28;20102;-88
2023/05/29 12:15:18;;;;;;;12.93;3.72;;;23.30;44.90;;;;;;4956928;28;20534;-87
2023/05/29 12:17:46;;;;;;;18.90;4.85;;;23.20;44.80;;;;;;4955141;28;20050;-89
2023/05/29 12:20:14;;;;;;;11.98;3.83;;;23.30;44.20;;;;;;4959414;28;20800;-88
2023/05/29 12:22:43;;;;;;;13.75;4.35;;;23.30;44.70;;;;;;4957742;28;20249;-88
2023/05/29 12:25:13;;;;;;;11.88;3.78;;;23.30;44.90;;;;;;4958272;28;20077;-88
2023/05/29 12:27:46;;;;;;;11.70;3.95;;;23.30;45.60;;;;;;4959403;28;20047;-87
2023/05/29 12:30:15;;;;;;;16.10;4.43;;;23.30;44.70;;;;;;4955748;28;20058;-89
2023/05/29 12:32:44;;;;;;;14.48;3.50;;;23.40;44.10;;;;;;4958492;28;20414;-87
2023/05/29 12:35:14;;;;;;;13.80;4.35;;;23.40;44.40;;;;;;4958629;28;20070;-87
2023/05/29 12:37:46;;;;;;;13.98;4.07;;;23.40;44.30;;;;;;4957926;28;20073;-89
2023/05/29 12:40:19;;;;;;;14.95;3.92;;;23.40;43.90;;;;;;4957498;28;20503;-88
2023/05/29 12:42:48;;;;;;;12.73;3.70;;;23.40;44.10;;;;;;4956709;28;20057;-89
2023/05/29 12:45:18;;;;;;;12.70;4.40;;;23.40;44.70;;;;;;4963480;28;20379;-88
2023/05/29 12:47:53;;;;;;;11.35;3.40;;;23.50;43.90;;;;;;4956782;28;20054;-88